createdAt,value
2022-11-24T00:00:32.466Z,89.30
2022-11-24T00:02:34.625Z,82.82
2022-11-24T00:04:36.675Z,82.18
2022-11-24T00:06:38.559Z,81.18
2022-11-24T00:08:42.354Z,85.78
2022-11-24T00:10:44.225Z,102.60
2022-11-24T00:12:46.096Z,85.15
2022-11-24T00:14:47.970Z,93.05
2022-11-24T00:16:49.890Z,96.68
2022-11-24T00:18:54.753Z,108.60
2022-11-24T00:20:56.787Z,91.65
2022-11-24T00:22:58.687Z,93.88
2022-11-24T00:25:00.534Z,95.35
2022-11-24T00:27:02.473Z,86.15
2022-11-24T00:29:06.776Z,97.50
2022-11-24T00:31:23.855Z,98.93
2022-11-24T00:33:25.832Z,94.28
2022-11-24T00:35:27.726Z,76.35
2022-11-24T00:37:29.587Z,76.28
2022-11-24T00:39:31.427Z,81.10
2022-11-24T00:41:34.301Z,77.35
2022-11-24T00:43:36.152Z,74.38
2022-11-24T00:45:38.076Z,93.60
2022-11-24T00:47:40.100Z,75.70
2022-11-24T00:49:41.913Z,83.20
2022-11-24T00:51:43.727Z,80.88
2022-11-24T00:53:45.799Z,87.45
2022-11-24T00:55:50.078Z,90.65
2022-11-24T00:57:51.917Z,77.93
2022-11-24T00:59:54.166Z,87.78
2022-11-24T01:01:55.987Z,88.13
2022-11-24T01:03:59.748Z,79.45
2022-11-24T01:06:07.366Z,85.03
2022-11-24T01:08:09.679Z,76.10
2022-11-24T01:10:11.507Z,81.18
2022-11-24T01:12:13.716Z,88.43
2022-11-24T01:14:15.534Z,75.10
2022-11-24T01:16:21.684Z,74.03
2022-11-24T01:18:23.636Z,103.95
2022-11-24T01:20:25.503Z,79.75
2022-11-24T01:22:27.347Z,87.30
2022-11-24T01:24:29.424Z,86.93
2022-11-24T01:26:31.258Z,94.78
2022-11-24T01:28:33.205Z,113.63
2022-11-24T01:30:35.166Z,103.97
2022-11-24T01:32:37.078Z,108.90
2022-11-24T01:34:38.917Z,94.47
2022-11-24T01:36:40.842Z,88.00
2022-11-24T01:38:42.723Z,87.25
2022-11-24T01:40:44.831Z,96.40
2022-11-24T01:42:53.436Z,98.95
2022-11-24T01:45:27.220Z,86.55
2022-11-24T01:47:39.092Z,102.13
2022-11-24T01:49:49.018Z,85.15
2022-11-24T01:52:19.776Z,76.00
2022-11-24T01:54:45.538Z,77.97
2022-11-24T01:56:52.075Z,69.47
2022-11-24T01:58:58.852Z,68.97
2022-11-24T02:01:00.928Z,71.18
2022-11-24T02:03:03.619Z,65.32
2022-11-24T02:05:11.067Z,61.30
2022-11-24T02:07:13.950Z,72.10
2022-11-24T02:09:41.919Z,68.22
2022-11-24T02:11:44.822Z,68.63
2022-11-24T02:13:48.145Z,69.30
2022-11-24T02:15:50.137Z,71.75
2022-11-24T02:17:51.986Z,65.43
2022-11-24T02:19:59.051Z,61.63
2022-11-24T02:22:03.438Z,64.85
2022-11-24T02:24:28.836Z,67.32
2022-11-24T02:26:43.202Z,66.78
2022-11-24T02:28:46.235Z,68.68
2022-11-24T02:30:48.786Z,70.20
2022-11-24T02:32:51.828Z,63.78
2022-11-24T02:35:05.224Z,59.58
2022-11-24T02:37:07.525Z,58.03
2022-11-24T02:39:14.225Z,52.78
2022-11-24T02:41:19.694Z,51.28
2022-11-24T02:43:23.795Z,52.60
2022-11-24T02:45:26.713Z,52.85
2022-11-24T02:47:29.055Z,51.67
2022-11-24T02:49:31.026Z,57.92
2022-11-24T02:51:32.913Z,57.75
2022-11-24T02:53:35.053Z,53.20
2022-11-24T02:55:36.878Z,58.85
2022-11-24T02:57:38.725Z,53.08
2022-11-24T02:59:40.627Z,58.72
2022-11-24T03:01:42.515Z,57.30
2022-11-24T03:03:44.497Z,58.45
2022-11-24T03:05:46.823Z,55.92
2022-11-24T03:07:48.695Z,59.75
2022-11-24T03:09:50.602Z,59.92
2022-11-24T03:11:52.692Z,53.78
2022-11-24T03:13:54.515Z,58.38
2022-11-24T03:15:56.393Z,55.90
2022-11-24T03:17:59.071Z,55.83
2022-11-24T03:20:04.586Z,55.90
2022-11-24T03:22:07.070Z,53.33
2022-11-24T03:24:09.192Z,57.33
2022-11-24T03:26:16.433Z,58.55
2022-11-24T03:28:18.254Z,67.40
2022-11-24T03:30:20.518Z,72.65
2022-11-24T03:32:22.354Z,67.55
2022-11-24T03:34:24.318Z,61.35
2022-11-24T03:36:26.259Z,70.43
2022-11-24T03:38:28.796Z,63.33
2022-11-24T03:40:30.614Z,63.50
2022-11-24T03:42:32.625Z,59.40
2022-11-24T03:44:34.748Z,64.90
2022-11-24T03:46:36.947Z,66.97
2022-11-24T03:48:39.259Z,72.47
2022-11-24T03:50:41.263Z,68.68
2022-11-24T03:52:43.083Z,67.38
2022-11-24T03:54:45.311Z,65.15
2022-11-24T03:56:47.148Z,60.10
2022-11-24T03:58:49.029Z,63.35
2022-11-24T04:00:52.537Z,57.10
2022-11-24T04:02:54.405Z,54.65
2022-11-24T04:04:56.312Z,46.47
2022-11-24T04:06:58.190Z,47.00
2022-11-24T04:09:00.869Z,49.03
2022-11-24T04:11:02.842Z,52.63
2022-11-24T04:13:11.735Z,46.63
2022-11-24T04:15:16.878Z,48.75
2022-11-24T04:17:18.722Z,54.03
2022-11-24T04:19:20.732Z,57.03
2022-11-24T04:21:22.604Z,53.42
2022-11-24T04:23:24.416Z,63.10
2022-11-24T04:25:26.617Z,52.92
2022-11-24T04:27:28.690Z,51.85
2022-11-24T04:29:30.500Z,51.88
2022-11-24T04:31:32.583Z,49.38
2022-11-24T04:33:34.602Z,46.90
2022-11-24T04:35:36.418Z,46.13
2022-11-24T04:37:38.952Z,52.45
2022-11-24T04:39:40.860Z,49.33
2022-11-24T04:41:42.690Z,54.22
2022-11-24T04:43:44.771Z,49.17
2022-11-24T04:45:46.628Z,49.63
2022-11-24T04:47:48.427Z,48.42
2022-11-24T04:49:50.802Z,48.95
2022-11-24T04:51:52.638Z,47.17
2022-11-24T04:53:54.522Z,50.78
2022-11-24T04:55:56.584Z,47.35
2022-11-24T04:57:58.396Z,48.90
2022-11-24T05:00:00.371Z,46.38
2022-11-24T05:02:02.405Z,53.78
2022-11-24T05:04:04.352Z,48.22
2022-11-24T05:06:06.845Z,50.75
2022-11-24T05:08:23.080Z,42.28
2022-11-24T05:10:24.857Z,48.22
2022-11-24T05:12:27.503Z,50.28
2022-11-24T05:14:29.304Z,47.30
2022-11-24T05:16:31.079Z,45.15
2022-11-24T05:18:32.914Z,49.88
2022-11-24T05:20:35.580Z,51.30
2022-11-24T05:22:37.404Z,58.47
2022-11-24T05:24:39.126Z,71.20
2022-11-24T05:26:41.093Z,71.32
2022-11-24T05:28:42.920Z,82.93
2022-11-24T05:30:45.420Z,84.55
2022-11-24T05:32:47.515Z,80.78
2022-11-24T05:34:49.320Z,69.50
2022-11-24T05:36:51.062Z,82.50
2022-11-24T05:38:52.983Z,76.65
2022-11-24T05:40:54.748Z,79.95
2022-11-24T05:42:56.500Z,81.57
2022-11-24T05:44:58.342Z,93.13
2022-11-24T05:47:00.192Z,93.63
2022-11-24T05:49:01.984Z,96.32
2022-11-24T05:51:07.957Z,93.10
2022-11-24T05:53:13.392Z,87.90
2022-11-24T05:55:15.956Z,91.90
2022-11-24T05:57:18.206Z,87.10
2022-11-24T05:59:19.926Z,72.00
2022-11-24T06:01:21.611Z,76.45
2022-11-24T06:03:23.488Z,65.68
2022-11-24T06:05:25.960Z,74.38
2022-11-24T06:07:27.760Z,71.80
2022-11-24T06:09:29.852Z,68.80
2022-11-24T06:11:31.542Z,65.03
2022-11-24T06:13:33.271Z,68.85
2022-11-24T06:15:35.648Z,72.07
2022-11-24T06:17:37.820Z,67.22
2022-11-24T06:19:42.085Z,67.03
2022-11-24T06:21:44.399Z,62.80
2022-11-24T06:23:49.768Z,66.93
2022-11-24T06:25:51.671Z,63.25
2022-11-24T06:27:53.754Z,58.78
2022-11-24T06:29:55.493Z,55.63
2022-11-24T06:31:57.288Z,52.88
2022-11-24T06:33:59.537Z,51.55
2022-11-24T06:36:03.571Z,56.83
2022-11-24T06:38:05.487Z,55.83
2022-11-24T06:40:08.118Z,54.92
2022-11-24T06:42:09.844Z,59.03
2022-11-24T06:44:11.542Z,57.45
2022-11-24T06:46:14.175Z,72.35
2022-11-24T06:48:15.930Z,65.00
2022-11-24T06:50:17.649Z,57.67
2022-11-24T06:52:19.652Z,54.92
2022-11-24T06:54:21.452Z,78.65
2022-11-24T06:56:23.190Z,56.28
2022-11-24T06:58:25.086Z,52.63
2022-11-24T07:00:26.776Z,54.45
2022-11-24T07:02:28.503Z,67.45
2022-11-24T07:04:30.460Z,66.80
2022-11-24T07:06:32.145Z,55.53
2022-11-24T07:08:33.927Z,54.47
2022-11-24T07:10:36.118Z,56.25
2022-11-24T07:12:37.815Z,56.83
2022-11-24T07:14:39.507Z,56.58
2022-11-24T07:16:41.708Z,57.75
2022-11-24T07:18:44.954Z,52.60
2022-11-24T07:20:46.644Z,56.50
2022-11-24T07:22:48.772Z,52.95
2022-11-24T07:24:50.469Z,54.67
2022-11-24T07:26:52.160Z,59.05
2022-11-24T07:28:54.513Z,62.67
2022-11-24T07:30:56.379Z,64.60
2022-11-24T07:33:04.268Z,62.15
2022-11-24T07:35:06.712Z,60.78
2022-11-24T07:37:08.407Z,57.90
2022-11-24T07:39:10.126Z,65.72
2022-11-24T07:41:14.303Z,68.68
2022-11-24T07:43:20.158Z,70.35
2022-11-24T07:45:23.289Z,67.43
2022-11-24T07:47:25.256Z,57.75
2022-11-24T07:49:26.963Z,62.08
2022-11-24T07:51:28.731Z,60.72
2022-11-24T07:53:31.980Z,61.22
2022-11-24T07:55:33.711Z,59.30
2022-11-24T07:57:35.784Z,64.88
2022-11-24T07:59:37.756Z,70.15
2022-11-24T08:01:39.499Z,69.38
2022-11-24T08:03:42.079Z,63.53
2022-11-24T08:06:07.883Z,64.95
2022-11-24T08:08:05.721Z,71.35
2022-11-24T08:10:07.911Z,72.45
2022-11-24T08:12:09.912Z,73.35
2022-11-24T08:14:11.663Z,58.35
2022-11-24T08:16:15.593Z,63.67
2022-11-24T08:18:17.760Z,60.72
2022-11-24T08:20:19.609Z,63.28
2022-11-24T08:22:21.625Z,58.58
2022-11-24T08:24:23.461Z,74.63
2022-11-24T08:26:26.180Z,78.70
2022-11-24T08:28:27.885Z,75.97
2022-11-24T08:30:30.586Z,56.65
2022-11-24T08:32:32.323Z,67.60
2022-11-24T08:34:34.670Z,75.70
2022-11-24T08:36:36.980Z,83.53
2022-11-24T08:38:39.232Z,75.30
2022-11-24T08:40:40.931Z,69.95
2022-11-24T08:42:42.912Z,63.00
2022-11-24T08:44:44.725Z,60.50
2022-11-24T08:46:46.422Z,69.47
2022-11-24T08:48:53.819Z,64.72
2022-11-24T08:50:56.315Z,60.78
2022-11-24T08:52:58.032Z,61.13
2022-11-24T08:55:00.033Z,63.53
2022-11-24T08:57:01.804Z,89.32
2022-11-24T08:59:03.552Z,88.20
2022-11-24T09:01:08.280Z,92.22
2022-11-24T09:03:12.227Z,176.88
2022-11-24T09:05:43.707Z,91.18
2022-11-24T09:07:35.903Z,62.30
2022-11-24T09:09:37.734Z,62.67
2022-11-24T09:11:39.528Z,64.95
2022-11-24T09:13:41.623Z,89.82
2022-11-24T09:15:43.668Z,88.57
2022-11-24T09:17:45.407Z,91.72
2022-11-24T09:22:06.309Z,98.80
2022-11-24T09:24:08.443Z,72.53
2022-11-24T09:26:33.173Z,85.85
2022-11-24T09:28:36.135Z,73.18
2022-11-24T09:30:37.907Z,66.50
2022-11-24T09:32:39.654Z,59.67
2022-11-24T09:34:41.509Z,93.30
2022-11-24T09:36:43.308Z,66.68
2022-11-24T09:38:45.161Z,66.80
2022-11-24T09:40:46.992Z,98.38
2022-11-24T09:43:09.344Z,69.93
2022-11-24T09:45:19.978Z,84.35
2022-11-24T09:47:50.017Z,72.82
2022-11-24T09:50:02.625Z,64.07
2022-11-24T09:52:10.175Z,60.40
2022-11-24T09:54:20.744Z,47.65
2022-11-24T09:56:26.190Z,44.72
2022-11-24T09:58:41.114Z,45.60
2022-11-24T10:00:43.259Z,52.20
2022-11-24T10:02:48.914Z,56.70
2022-11-24T10:04:50.759Z,89.78
2022-11-24T10:07:11.930Z,54.90
2022-11-24T10:09:21.396Z,53.75
2022-11-24T10:11:51.424Z,50.38
2022-11-24T10:14:02.143Z,47.65
2022-11-24T10:16:39.267Z,40.90
2022-11-24T10:18:43.702Z,48.60
2022-11-24T10:20:51.570Z,57.63
2022-11-24T10:23:12.012Z,82.72
2022-11-24T10:25:25.226Z,76.68
2022-11-24T10:27:33.910Z,284.95
2022-11-24T10:29:41.020Z,105.25
2022-11-24T10:31:44.706Z,136.00
2022-11-24T10:33:47.859Z,101.63
2022-11-24T10:36:07.559Z,87.25
2022-11-24T10:38:21.620Z,55.78
2022-11-24T10:43:00.982Z,60.65
2022-11-24T10:45:14.550Z,57.15
2022-11-24T10:47:21.501Z,63.80
2022-11-24T10:49:27.521Z,62.78
2022-11-24T10:51:59.784Z,54.45
2022-11-24T10:54:07.231Z,57.35
2022-11-24T10:56:08.962Z,56.70
2022-11-24T10:58:16.950Z,57.80
2022-11-24T11:00:18.603Z,50.08
2022-11-24T11:02:32.611Z,56.33
2022-11-24T11:06:36.691Z,45.40
2022-11-24T11:08:39.244Z,48.20
2022-11-24T11:10:43.264Z,46.03
2022-11-24T11:12:45.411Z,45.15
2022-11-24T11:14:47.597Z,51.40
2022-11-24T11:16:54.113Z,57.97
2022-11-24T11:18:56.216Z,61.88
2022-11-24T11:21:01.062Z,58.08
2022-11-24T11:23:15.669Z,55.95
2022-11-24T11:25:24.538Z,59.20
2022-11-24T11:27:26.974Z,53.08
2022-11-24T11:34:41.736Z,61.97
2022-11-24T11:36:52.612Z,63.35
2022-11-24T11:38:54.548Z,63.13
2022-11-24T11:40:56.461Z,79.60
2022-11-24T11:43:17.387Z,119.43
2022-11-24T11:45:25.969Z,147.85
2022-11-24T11:47:33.533Z,179.50
2022-11-24T11:49:38.483Z,157.13
2022-11-24T11:52:13.509Z,118.07
2022-11-24T11:54:30.165Z,123.18
2022-11-24T11:56:37.596Z,101.15
2022-11-24T11:58:39.505Z,142.52
2022-11-24T12:01:01.255Z,132.80
2022-11-24T12:03:21.767Z,122.93
2022-11-24T12:05:49.771Z,107.13
2022-11-24T12:08:10.882Z,59.28
2022-11-24T12:10:20.295Z,57.78
2022-11-24T12:12:24.891Z,52.70
2022-11-24T12:14:58.606Z,46.85
2022-11-24T12:17:09.587Z,93.82
2022-11-24T12:19:44.927Z,124.82
2022-11-24T12:21:54.321Z,70.68
2022-11-24T12:24:20.697Z,110.78
2022-11-24T12:26:55.766Z,66.65
2022-11-24T12:29:13.479Z,60.83
2022-11-24T12:31:35.445Z,121.90
2022-11-24T12:34:01.361Z,73.40
2022-11-24T12:36:21.829Z,115.88
2022-11-24T12:38:23.477Z,100.47
2022-11-24T12:40:46.584Z,155.25
2022-11-24T12:43:09.621Z,47.17
2022-11-24T12:45:15.153Z,105.22
2022-11-24T12:47:39.538Z,145.82
2022-11-24T12:55:54.539Z,57.22
2022-11-24T12:58:09.346Z,56.05
2022-11-24T13:01:02.299Z,45.22
2022-11-24T13:03:34.787Z,48.45
2022-11-24T13:06:08.871Z,54.72
2022-11-24T13:08:11.085Z,122.47
2022-11-24T13:12:57.372Z,79.40
2022-11-24T13:14:59.454Z,75.22
2022-11-24T13:17:28.829Z,66.53
2022-11-24T13:19:35.824Z,59.58
2022-11-24T13:21:40.539Z,66.32
2022-11-24T13:23:42.350Z,55.83
2022-11-24T13:26:27.839Z,79.57
2022-11-24T13:29:08.959Z,63.80
2022-11-24T13:31:22.812Z,71.45
2022-11-24T13:33:32.724Z,229.63
2022-11-24T13:35:34.465Z,143.50
2022-11-24T13:37:36.332Z,84.38
2022-11-24T13:39:58.393Z,73.60
2022-11-24T13:42:00.822Z,66.38
2022-11-24T13:44:14.424Z,67.10
2022-11-24T13:47:04.831Z,63.50
2022-11-24T13:49:14.313Z,72.70
2022-11-24T13:51:23.862Z,65.05
2022-11-24T13:53:31.803Z,70.20
2022-11-24T13:55:38.381Z,87.63
2022-11-24T13:57:45.637Z,84.97
2022-11-24T13:59:47.947Z,72.00
2022-11-24T14:01:57.523Z,49.35
2022-11-24T14:04:30.637Z,67.90
2022-11-24T14:06:34.728Z,90.45
2022-11-24T14:08:38.359Z,66.65
2022-11-24T14:12:43.057Z,79.80
2022-11-24T14:14:49.760Z,54.80
2022-11-24T14:17:13.465Z,54.72
2022-11-24T14:19:18.804Z,46.97
2022-11-24T14:21:20.510Z,44.80
2022-11-24T14:23:23.012Z,48.13
2022-11-24T14:25:32.503Z,74.30
2022-11-24T14:27:38.056Z,57.85
2022-11-24T14:29:55.301Z,56.30
2022-11-24T14:31:59.745Z,49.22
2022-11-24T14:34:18.980Z,44.72
2022-11-24T14:36:21.347Z,49.70
2022-11-24T14:38:23.162Z,50.60
2022-11-24T14:40:43.311Z,54.05
2022-11-24T14:42:50.417Z,41.33
2022-11-24T14:44:55.951Z,53.40
2022-11-24T14:47:14.988Z,73.25
2022-11-24T14:49:19.209Z,94.30
2022-11-24T14:51:36.323Z,89.75
2022-11-24T14:53:42.886Z,57.03
2022-11-24T14:55:44.677Z,59.03
2022-11-24T14:57:46.569Z,54.28
2022-11-24T15:00:24.120Z,61.03
2022-11-24T15:02:54.169Z,53.80
2022-11-24T15:05:02.649Z,62.83
2022-11-24T15:07:28.266Z,50.45
2022-11-24T15:09:37.688Z,69.50
2022-11-24T15:11:39.400Z,56.65
2022-11-24T15:13:53.374Z,47.72
2022-11-24T15:18:06.454Z,41.75
2022-11-24T15:20:16.903Z,42.78
2022-11-24T15:22:35.188Z,42.15
2022-11-24T15:24:49.096Z,54.22
2022-11-24T15:26:58.747Z,47.28
2022-11-24T15:29:00.557Z,41.63
2022-11-24T15:31:05.253Z,53.75
2022-11-24T15:33:13.907Z,52.42
2022-11-24T15:35:15.750Z,54.10
2022-11-24T15:37:17.484Z,77.75
2022-11-24T15:39:19.234Z,72.82
2022-11-24T15:41:23.174Z,69.25
2022-11-24T15:43:32.090Z,76.70
2022-11-24T15:45:35.220Z,289.65
2022-11-24T15:47:37.159Z,238.13
2022-11-24T15:49:38.950Z,80.93
2022-11-24T15:51:43.850Z,66.40
2022-11-24T15:53:50.187Z,56.10
2022-11-24T15:55:52.922Z,60.15
2022-11-24T15:57:54.668Z,63.07
2022-11-24T15:59:59.383Z,59.45
2022-11-24T16:02:01.203Z,60.53
2022-11-24T16:04:03.336Z,57.90
2022-11-24T16:06:05.325Z,62.05
2022-11-24T16:08:13.076Z,64.38
2022-11-24T16:10:29.059Z,54.63
2022-11-24T16:12:31.054Z,54.58
2022-11-24T16:14:32.971Z,55.33
2022-11-24T16:16:34.826Z,50.88
2022-11-24T16:18:36.726Z,45.67
2022-11-24T16:20:38.409Z,47.03
2022-11-24T16:22:40.479Z,53.90
2022-11-24T16:24:42.305Z,58.58
2022-11-24T16:26:44.133Z,57.53
2022-11-24T16:28:46.008Z,56.38
2022-11-24T16:30:51.128Z,49.25
2022-11-24T16:32:52.944Z,75.13
2022-11-24T16:34:54.750Z,73.88
2022-11-24T16:36:56.627Z,72.13
2022-11-24T16:38:59.983Z,70.28
2022-11-24T16:41:01.824Z,97.93
2022-11-24T16:43:03.758Z,86.32
2022-11-24T16:45:06.149Z,92.38
2022-11-24T16:47:08.094Z,138.68
2022-11-24T16:49:09.896Z,168.15
2022-11-24T16:51:12.816Z,176.93
2022-11-24T16:53:14.570Z,165.40
2022-11-24T16:55:16.411Z,206.27
2022-11-24T16:57:18.189Z,156.02
2022-11-24T16:59:20.917Z,164.00
2022-11-24T17:01:22.787Z,702.57
2022-11-24T17:03:24.589Z,878.58
2022-11-24T17:05:26.268Z,634.28
2022-11-24T17:07:28.464Z,262.17
2022-11-24T17:09:30.246Z,105.72
2022-11-24T17:11:31.973Z,99.22
2022-11-24T17:13:34.320Z,79.20
2022-11-24T17:15:44.548Z,79.60
2022-11-24T17:18:16.228Z,68.93
2022-11-24T17:20:10.300Z,105.38
2022-11-24T17:22:11.988Z,136.48
2022-11-24T17:24:13.700Z,155.82
2022-11-24T17:26:17.464Z,119.43
2022-11-24T17:28:19.790Z,84.03
2022-11-24T17:30:21.465Z,78.43
2022-11-24T17:32:23.251Z,84.55
2022-11-24T17:34:24.977Z,208.73
2022-11-24T17:36:27.774Z,265.92
2022-11-24T17:38:29.504Z,79.25
2022-11-24T17:40:31.236Z,73.15
2022-11-24T17:42:33.042Z,67.15
2022-11-24T17:44:35.139Z,83.07
2022-11-24T17:46:36.965Z,78.30
2022-11-24T17:48:38.803Z,97.97
2022-11-24T17:50:40.661Z,99.57
2022-11-24T17:52:42.478Z,113.15
2022-11-24T17:54:46.694Z,123.10
2022-11-24T17:56:48.851Z,100.20
2022-11-24T17:58:55.271Z,98.00
2022-11-24T18:00:57.988Z,86.20
2022-11-24T18:02:59.814Z,91.87
2022-11-24T18:05:01.504Z,98.53
2022-11-24T18:07:03.303Z,85.68
2022-11-24T18:09:05.358Z,83.85
2022-11-24T18:11:10.261Z,95.10
2022-11-24T18:13:22.380Z,266.60
2022-11-24T18:15:35.220Z,201.00
2022-11-24T18:17:36.916Z,201.60
2022-11-24T18:19:38.630Z,351.58
2022-11-24T18:21:42.030Z,465.02
2022-11-24T18:23:44.242Z,982.47
2022-11-24T18:25:56.585Z,139.15
2022-11-24T18:27:58.369Z,126.53
2022-11-24T18:30:00.181Z,289.52
2022-11-24T18:32:02.179Z,124.55
2022-11-24T18:34:05.615Z,102.40
2022-11-24T18:36:07.742Z,565.55
2022-11-24T18:38:10.796Z,266.25
2022-11-24T18:40:12.671Z,105.55
2022-11-24T18:42:15.339Z,117.68
2022-11-24T18:44:17.246Z,120.87
2022-11-24T18:46:19.353Z,115.43
2022-11-24T18:48:22.444Z,123.65
2022-11-24T18:50:24.267Z,261.88
2022-11-24T18:52:26.075Z,286.02
2022-11-24T18:54:28.034Z,332.58
2022-11-24T18:56:29.792Z,252.10
2022-11-24T18:58:33.789Z,306.63
2022-11-24T19:00:35.551Z,221.10
2022-11-24T19:02:37.343Z,237.10
2022-11-24T19:04:39.298Z,142.88
2022-11-24T19:06:41.017Z,97.50
2022-11-24T19:08:43.034Z,95.20
2022-11-24T19:10:45.973Z,211.93
2022-11-24T19:12:47.675Z,138.45
2022-11-24T19:14:49.426Z,179.35
2022-11-24T19:16:51.321Z,237.40
2022-11-24T19:18:55.962Z,203.38
2022-11-24T19:20:57.812Z,157.65
2022-11-24T19:22:59.592Z,154.50
2022-11-24T19:25:01.406Z,126.47
2022-11-24T19:27:03.264Z,246.90
2022-11-24T19:29:06.450Z,190.75
2022-11-24T19:31:10.648Z,135.82
2022-11-24T19:33:12.481Z,121.20
2022-11-24T19:35:14.433Z,157.10
2022-11-24T19:37:16.140Z,125.03
2022-11-24T19:39:18.009Z,122.95
2022-11-24T19:41:21.481Z,135.77
2022-11-24T19:43:23.296Z,122.78
2022-11-24T19:45:25.075Z,108.90
2022-11-24T19:47:27.115Z,130.45
2022-11-24T19:49:28.886Z,140.15
2022-11-24T19:51:36.299Z,163.05
2022-11-24T19:53:38.066Z,169.32
2022-11-24T19:55:39.852Z,150.20
2022-11-24T19:57:41.568Z,182.00
2022-11-24T19:59:43.441Z,178.77
2022-11-24T20:01:45.681Z,144.90
2022-11-24T20:03:53.756Z,164.25
2022-11-24T20:05:56.321Z,140.48
2022-11-24T20:07:58.244Z,134.95
2022-11-24T20:10:06.041Z,129.32
2022-11-24T20:12:09.406Z,139.75
2022-11-24T20:14:16.138Z,139.77
2022-11-24T20:16:20.514Z,122.47
2022-11-24T20:18:22.437Z,137.40
2022-11-24T20:20:24.200Z,123.05
2022-11-24T20:22:25.950Z,136.30
2022-11-24T20:24:27.753Z,185.65
2022-11-24T20:26:41.977Z,175.90
2022-11-24T20:28:43.803Z,161.60
2022-11-24T20:30:45.661Z,148.25
2022-11-24T20:32:47.435Z,168.57
2022-11-24T20:34:49.155Z,156.38
2022-11-24T20:36:51.681Z,138.13
2022-11-24T20:38:54.327Z,140.13
2022-11-24T20:41:08.972Z,154.82
2022-11-24T20:43:11.280Z,144.40
2022-11-24T20:45:13.191Z,142.43
2022-11-24T20:47:14.862Z,152.93
2022-11-24T20:49:18.914Z,141.68
2022-11-24T20:51:23.229Z,153.65
2022-11-24T20:53:24.919Z,145.50
2022-11-24T20:55:26.800Z,141.07
2022-11-24T20:57:28.513Z,152.25
2022-11-24T20:59:30.197Z,148.18
2022-11-24T21:01:34.915Z,192.68
2022-11-24T21:03:41.399Z,199.65
2022-11-24T21:05:44.934Z,180.13
2022-11-24T21:07:46.698Z,150.30
2022-11-24T21:09:48.425Z,138.20
2022-11-24T21:11:50.115Z,116.63
2022-11-24T21:13:52.738Z,119.80
2022-11-24T21:15:55.334Z,147.80
2022-11-24T21:17:57.012Z,147.63
2022-11-24T21:20:01.146Z,142.20
2022-11-24T21:22:03.102Z,144.95
2022-11-24T21:24:07.587Z,145.02
2022-11-24T21:26:14.831Z,163.05
2022-11-24T21:28:18.156Z,155.95
2022-11-24T21:30:19.887Z,196.38
2022-11-24T21:32:21.722Z,162.80
2022-11-24T21:34:23.400Z,155.68
2022-11-24T21:36:26.205Z,172.52
2022-11-24T21:38:28.037Z,156.57
2022-11-24T21:40:32.862Z,170.02
2022-11-24T21:42:34.625Z,206.20
2022-11-24T21:44:36.694Z,182.93
2022-11-24T21:46:44.085Z,489.38
2022-11-24T21:48:50.287Z,477.30
2022-11-24T21:50:52.131Z,347.73
2022-11-24T21:52:53.815Z,329.60
2022-11-24T21:54:55.578Z,237.80
2022-11-24T21:56:57.444Z,208.30
2022-11-24T21:58:59.218Z,329.35
2022-11-24T22:01:05.600Z,216.10
2022-11-24T22:03:07.566Z,210.20
2022-11-24T22:05:09.498Z,173.65
2022-11-24T22:07:11.456Z,176.50
2022-11-24T22:09:17.695Z,241.25
2022-11-24T22:11:23.035Z,283.08
2022-11-24T22:13:24.783Z,294.17
2022-11-24T22:15:26.486Z,216.20
2022-11-24T22:17:30.688Z,231.98
2022-11-24T22:19:32.458Z,225.50
2022-11-24T22:21:34.319Z,170.23
2022-11-24T22:23:36.631Z,153.23
2022-11-24T22:25:38.317Z,306.27
2022-11-24T22:27:39.992Z,264.17
2022-11-24T22:29:41.707Z,250.98
2022-11-24T22:31:43.580Z,286.70
2022-11-24T22:33:46.157Z,186.45
2022-11-24T22:36:01.099Z,157.63
2022-11-24T22:38:02.852Z,162.50
2022-11-24T22:40:05.101Z,183.20
2022-11-24T22:42:06.806Z,181.32
2022-11-24T22:44:08.544Z,204.93
2022-11-24T22:46:14.076Z,323.75
2022-11-24T22:48:15.796Z,256.20
2022-11-24T22:50:17.635Z,228.23
2022-11-24T22:52:19.454Z,221.52
2022-11-24T22:54:21.213Z,207.10
2022-11-24T22:56:24.128Z,261.55
2022-11-24T22:58:25.996Z,249.38
2022-11-24T23:00:27.817Z,212.30
2022-11-24T23:02:29.595Z,252.93
2022-11-24T23:04:31.535Z,251.07
2022-11-24T23:06:34.488Z,277.17
2022-11-24T23:08:36.718Z,229.20
2022-11-24T23:10:38.544Z,164.15
2022-11-24T23:12:40.285Z,151.57
2022-11-24T23:14:41.971Z,154.13
2022-11-24T23:16:43.896Z,158.30
2022-11-24T23:18:52.436Z,144.18
2022-11-24T23:20:55.687Z,130.73
2022-11-24T23:22:57.565Z,133.15
2022-11-24T23:24:59.277Z,152.90
2022-11-24T23:27:00.985Z,160.48
2022-11-24T23:29:04.019Z,132.40
2022-11-24T23:31:09.240Z,140.27
2022-11-24T23:33:11.033Z,133.23
2022-11-24T23:35:14.142Z,133.18
2022-11-24T23:37:15.974Z,141.13
2022-11-24T23:39:17.708Z,158.07
2022-11-24T23:41:22.648Z,132.93
2022-11-24T23:43:24.463Z,133.27
2022-11-24T23:45:26.214Z,135.65
2022-11-24T23:47:27.984Z,139.55
2022-11-24T23:49:29.722Z,128.30
2022-11-24T23:51:33.219Z,145.07
2022-11-24T23:53:35.812Z,154.02
2022-11-24T23:55:37.676Z,138.27
2022-11-24T23:57:39.402Z,137.05
2022-11-24T23:59:41.248Z,148.38
